This is the latest recevied weather packets stored in our database for station/object PP5ABU-13. If no packets are shown the sender has not sent any weather packets the latest 10 day(s).
| Time | Temp. | Humidity | Pressure | Rain* | Wind** | Luminosity | Snow |
|---|---|---|---|---|---|---|---|
| 1777664704 | 27.78° C | 63% | 1012.1 hPa | 0 mm | - | - | - |
| 1777663804 | 27.78° C | 64% | 1012 hPa | 0 mm | - | - | - |
| 1777662904 | 28.33° C | 63% | 1011.9 hPa | 0 mm | - | - | - |
| 1777662004 | 28.33° C | 63% | 1012 hPa | 0 mm | - | - | - |
| 1777661104 | 29.44° C | 61% | 1012 hPa | 0 mm | - | - | - |
| 1777659305 | 29.44° C | 62% | 1012.1 hPa | 0 mm | - | - | - |
| 1777658404 | 28.89° C | 62% | 1012.4 hPa | 0 mm | - | - | - |
| 1777657504 | 28.89° C | 63% | 1012.9 hPa | 0 mm | - | - | - |
| 1777656604 | 28.89° C | 63% | 1013.1 hPa | 0 mm | - | - | - |
| 1777655704 | 28.89° C | 62% | 1013.6 hPa | 0 mm | - | - | - |
| 1777654804 | 28.89° C | 62% | 1013.7 hPa | 0 mm | - | - | - |
| 1777653904 | 28.33° C | 63% | 1013.8 hPa | 0 mm | - | - | - |
| 1777653004 | 28.33° C | 63% | 1013.9 hPa | 0 mm | - | - | - |
| 1777652104 | 28.33° C | 64% | 1014.2 hPa | 0 mm | - | - | - |
| 1777651205 | 28.33° C | 65% | 1014.7 hPa | 0 mm | - | - | - |
| 1777650304 | 27.78° C | 67% | 1014.9 hPa | 0 mm | - | - | - |
| 1777649404 | 27.78° C | 68% | 1015.1 hPa | 0 mm | - | - | - |
| 1777648504 | 27.22° C | 71% | 1015.3 hPa | 0 mm | - | - | - |
| 1777647604 | 26.67° C | 72% | 1015.7 hPa | 0 mm | - | - | - |
| 1777646705 | 26.11° C | 73% | 1016 hPa | 0 mm | - | - | - |
| 1777645804 | 26.11° C | 74% | 1016.3 hPa | 0 mm | - | - | - |
| 1777644905 | 25° C | 75% | 1016.4 hPa | 0 mm | - | - | - |
| 1777644004 | 24.44° C | 75% | 1016.7 hPa | 0 mm | - | - | - |
| 1777643104 | 24.44° C | 76% | 1017 hPa | 0 mm | - | - | - |
| 1777642204 | 23.89° C | 79% | 1017.2 hPa | 0 mm | - | - | - |
* Rain latest hour (hover to see other rain measurements)
** Current wind speed in m/s (hover to see current wind gust speed)